sensor_id;sensor_type;location;lat;lon;timestamp;temperature;humidity
68867;SHT30;56451;44.804;20.476;2023-09-18T00:00:26;23.56;60.27
68867;SHT30;56451;44.804;20.476;2023-09-18T00:02:51;23.53;60.35
68867;SHT30;56451;44.804;20.476;2023-09-18T00:05:17;23.53;60.29
68867;SHT30;56451;44.804;20.476;2023-09-18T00:07:44;23.52;60.40
68867;SHT30;56451;44.804;20.476;2023-09-18T00:10:11;23.49;60.42
68867;SHT30;56451;44.804;20.476;2023-09-18T00:12:38;23.45;60.41
68867;SHT30;56451;44.804;20.476;2023-09-18T00:15:05;23.48;60.38
68867;SHT30;56451;44.804;20.476;2023-09-18T00:17:31;23.48;60.42
68867;SHT30;56451;44.804;20.476;2023-09-18T00:19:57;23.49;60.39
68867;SHT30;56451;44.804;20.476;2023-09-18T00:22:23;23.43;60.45
68867;SHT30;56451;44.804;20.476;2023-09-18T00:24:50;23.46;60.49
68867;SHT30;56451;44.804;20.476;2023-09-18T00:27:16;23.43;60.60
68867;SHT30;56451;44.804;20.476;2023-09-18T00:29:42;23.41;60.71
68867;SHT30;56451;44.804;20.476;2023-09-18T00:32:08;23.41;60.87
68867;SHT30;56451;44.804;20.476;2023-09-18T00:34:34;23.39;60.80
68867;SHT30;56451;44.804;20.476;2023-09-18T00:37:00;23.41;60.76
68867;SHT30;56451;44.804;20.476;2023-09-18T00:39:26;23.42;60.83
68867;SHT30;56451;44.804;20.476;2023-09-18T00:41:52;23.42;60.89
68867;SHT30;56451;44.804;20.476;2023-09-18T00:44:20;23.43;60.88
68867;SHT30;56451;44.804;20.476;2023-09-18T00:46:48;23.45;60.76
68867;SHT30;56451;44.804;20.476;2023-09-18T00:49:15;23.42;60.88
68867;SHT30;56451;44.804;20.476;2023-09-18T00:51:41;23.41;61.02
68867;SHT30;56451;44.804;20.476;2023-09-18T00:54:08;23.39;60.97
68867;SHT30;56451;44.804;20.476;2023-09-18T00:56:35;23.42;60.88
68867;SHT30;56451;44.804;20.476;2023-09-18T00:59:01;23.45;60.95
68867;SHT30;56451;44.804;20.476;2023-09-18T01:01:28;23.43;60.98
68867;SHT30;56451;44.804;20.476;2023-09-18T01:03:56;23.37;61.14
68867;SHT30;56451;44.804;20.476;2023-09-18T01:06:25;23.39;61.16
68867;SHT30;56451;44.804;20.476;2023-09-18T01:08:53;23.35;61.23
68867;SHT30;56451;44.804;20.476;2023-09-18T01:11:54;23.32;61.30
68867;SHT30;56451;44.804;20.476;2023-09-18T01:14:37;23.31;61.45
68867;SHT30;56451;44.804;20.476;2023-09-18T01:17:07;23.32;61.31
68867;SHT30;56451;44.804;20.476;2023-09-18T01:19:40;23.31;61.37
68867;SHT30;56451;44.804;20.476;2023-09-18T01:22:08;23.28;61.49
68867;SHT30;56451;44.804;20.476;2023-09-18T01:24:36;23.26;61.58
68867;SHT30;56451;44.804;20.476;2023-09-18T01:27:02;23.28;61.52
68867;SHT30;56451;44.804;20.476;2023-09-18T01:29:30;23.28;61.49
68867;SHT30;56451;44.804;20.476;2023-09-18T01:31:57;23.23;61.65
68867;SHT30;56451;44.804;20.476;2023-09-18T01:34:28;23.21;61.64
68867;SHT30;56451;44.804;20.476;2023-09-18T01:36:57;23.19;61.66
68867;SHT30;56451;44.804;20.476;2023-09-18T01:39:25;23.16;61.78
68867;SHT30;56451;44.804;20.476;2023-09-18T01:41:53;23.21;61.81
68867;SHT30;56451;44.804;20.476;2023-09-18T01:44:19;23.16;61.84
68867;SHT30;56451;44.804;20.476;2023-09-18T01:46:45;23.15;61.81
68867;SHT30;56451;44.804;20.476;2023-09-18T01:49:11;23.15;61.80
68867;SHT30;56451;44.804;20.476;2023-09-18T01:51:37;23.12;61.94
68867;SHT30;56451;44.804;20.476;2023-09-18T01:54:03;23.11;61.84
68867;SHT30;56451;44.804;20.476;2023-09-18T01:56:29;23.12;61.93
68867;SHT30;56451;44.804;20.476;2023-09-18T01:58:55;23.14;61.83
68867;SHT30;56451;44.804;20.476;2023-09-18T02:01:21;23.12;61.97
68867;SHT30;56451;44.804;20.476;2023-09-18T02:03:47;23.08;61.88
68867;SHT30;56451;44.804;20.476;2023-09-18T02:06:13;23.12;61.98
68867;SHT30;56451;44.804;20.476;2023-09-18T02:08:39;23.12;62.01
68867;SHT30;56451;44.804;20.476;2023-09-18T02:11:05;23.10;62.02
68867;SHT30;56451;44.804;20.476;2023-09-18T02:13:31;23.15;61.81
68867;SHT30;56451;44.804;20.476;2023-09-18T02:15:57;23.14;61.90
68867;SHT30;56451;44.804;20.476;2023-09-18T02:18:23;23.11;61.97
68867;SHT30;56451;44.804;20.476;2023-09-18T02:20:49;23.10;62.04
68867;SHT30;56451;44.804;20.476;2023-09-18T02:23:15;23.04;62.04
68867;SHT30;56451;44.804;20.476;2023-09-18T02:25:42;22.98;62.26
68867;SHT30;56451;44.804;20.476;2023-09-18T02:28:08;23.00;62.33
68867;SHT30;56451;44.804;20.476;2023-09-18T02:33:29;23.00;62.28
68867;SHT30;56451;44.804;20.476;2023-09-18T02:35:55;22.98;62.31
68867;SHT30;56451;44.804;20.476;2023-09-18T02:38:21;22.95;62.43
68867;SHT30;56451;44.804;20.476;2023-09-18T02:40:47;22.94;62.53
68867;SHT30;56451;44.804;20.476;2023-09-18T02:43:13;22.93;62.68
68867;SHT30;56451;44.804;20.476;2023-09-18T02:45:39;22.91;62.66
68867;SHT30;56451;44.804;20.476;2023-09-18T02:48:06;22.90;62.75
68867;SHT30;56451;44.804;20.476;2023-09-18T02:50:32;22.93;62.69
68867;SHT30;56451;44.804;20.476;2023-09-18T02:52:57;22.94;62.64
68867;SHT30;56451;44.804;20.476;2023-09-18T02:55:23;22.90;62.75
68867;SHT30;56451;44.804;20.476;2023-09-18T02:57:49;22.88;62.81
68867;SHT30;56451;44.804;20.476;2023-09-18T03:00:15;22.90;62.80
68867;SHT30;56451;44.804;20.476;2023-09-18T03:02:42;22.88;62.82
68867;SHT30;56451;44.804;20.476;2023-09-18T03:05:08;22.93;62.83
68867;SHT30;56451;44.804;20.476;2023-09-18T03:07:34;22.94;62.73
68867;SHT30;56451;44.804;20.476;2023-09-18T03:10:00;22.97;62.57
68867;SHT30;56451;44.804;20.476;2023-09-18T03:12:26;22.94;62.73
68867;SHT30;56451;44.804;20.476;2023-09-18T03:14:52;22.93;62.80
68867;SHT30;56451;44.804;20.476;2023-09-18T03:17:18;22.94;62.81
68867;SHT30;56451;44.804;20.476;2023-09-18T03:19:48;22.95;62.65
68867;SHT30;56451;44.804;20.476;2023-09-18T03:22:14;22.97;62.60
68867;SHT30;56451;44.804;20.476;2023-09-18T03:24:40;22.98;62.67
68867;SHT30;56451;44.804;20.476;2023-09-18T03:27:07;22.94;62.66
68867;SHT30;56451;44.804;20.476;2023-09-18T03:29:33;22.97;62.70
68867;SHT30;56451;44.804;20.476;2023-09-18T03:31:59;22.98;62.78
68867;SHT30;56451;44.804;20.476;2023-09-18T03:34:25;23.02;62.64
68867;SHT30;56451;44.804;20.476;2023-09-18T03:36:54;23.01;62.57
68867;SHT30;56451;44.804;20.476;2023-09-18T03:39:20;23.00;62.62
68867;SHT30;56451;44.804;20.476;2023-09-18T03:41:46;23.01;62.66
68867;SHT30;56451;44.804;20.476;2023-09-18T03:44:12;23.01;62.58
68867;SHT30;56451;44.804;20.476;2023-09-18T03:46:38;23.04;62.54
68867;SHT30;56451;44.804;20.476;2023-09-18T03:49:04;23.01;62.65
68867;SHT30;56451;44.804;20.476;2023-09-18T03:51:33;23.02;62.64
68867;SHT30;56451;44.804;20.476;2023-09-18T03:53:59;23.00;62.81
68867;SHT30;56451;44.804;20.476;2023-09-18T03:56:25;23.00;62.74
68867;SHT30;56451;44.804;20.476;2023-09-18T03:58:51;23.01;62.63
68867;SHT30;56451;44.804;20.476;2023-09-18T04:01:17;23.04;62.67
68867;SHT30;56451;44.804;20.476;2023-09-18T04:03:43;23.02;62.73
68867;SHT30;56451;44.804;20.476;2023-09-18T04:06:09;23.05;62.49
68867;SHT30;56451;44.804;20.476;2023-09-18T04:08:35;23.04;62.53
68867;SHT30;56451;44.804;20.476;2023-09-18T04:11:01;23.01;62.70
68867;SHT30;56451;44.804;20.476;2023-09-18T04:13:29;23.04;62.59
68867;SHT30;56451;44.804;20.476;2023-09-18T04:15:55;23.02;62.51
68867;SHT30;56451;44.804;20.476;2023-09-18T04:18:23;23.04;62.46
68867;SHT30;56451;44.804;20.476;2023-09-18T04:20:49;23.02;62.54
68867;SHT30;56451;44.804;20.476;2023-09-18T04:23:23;23.01;62.64
68867;SHT30;56451;44.804;20.476;2023-09-18T04:25:52;22.97;62.68
68867;SHT30;56451;44.804;20.476;2023-09-18T04:28:21;22.97;62.63
68867;SHT30;56451;44.804;20.476;2023-09-18T04:30:48;22.95;62.71
68867;SHT30;56451;44.804;20.476;2023-09-18T04:33:14;22.98;62.67
68867;SHT30;56451;44.804;20.476;2023-09-18T04:35:42;22.95;62.74
68867;SHT30;56451;44.804;20.476;2023-09-18T04:38:09;22.97;62.83
68867;SHT30;56451;44.804;20.476;2023-09-18T04:40:37;23.01;62.56
68867;SHT30;56451;44.804;20.476;2023-09-18T04:43:03;23.04;62.63
68867;SHT30;56451;44.804;20.476;2023-09-18T04:45:32;23.04;62.44
68867;SHT30;56451;44.804;20.476;2023-09-18T04:47:58;23.07;62.39
68867;SHT30;56451;44.804;20.476;2023-09-18T04:50:25;23.02;62.51
68867;SHT30;56451;44.804;20.476;2023-09-18T04:52:54;23.04;62.45
68867;SHT30;56451;44.804;20.476;2023-09-18T04:55:21;23.02;62.58
68867;SHT30;56451;44.804;20.476;2023-09-18T04:57:47;23.05;62.50
68867;SHT30;56451;44.804;20.476;2023-09-18T05:00:14;22.98;62.68
68867;SHT30;56451;44.804;20.476;2023-09-18T05:02:40;23.04;62.46
68867;SHT30;56451;44.804;20.476;2023-09-18T05:05:07;23.04;62.50
68867;SHT30;56451;44.804;20.476;2023-09-18T05:07:35;23.01;62.63
68867;SHT30;56451;44.804;20.476;2023-09-18T05:10:01;23.02;62.77
68867;SHT30;56451;44.804;20.476;2023-09-18T05:12:26;23.02;62.57
68867;SHT30;56451;44.804;20.476;2023-09-18T05:14:52;23.04;62.68
68867;SHT30;56451;44.804;20.476;2023-09-18T05:17:18;23.02;62.50
68867;SHT30;56451;44.804;20.476;2023-09-18T05:19:44;23.07;62.55
68867;SHT30;56451;44.804;20.476;2023-09-18T05:22:11;23.10;62.43
68867;SHT30;56451;44.804;20.476;2023-09-18T05:24:38;23.08;62.48
68867;SHT30;56451;44.804;20.476;2023-09-18T05:27:04;23.10;62.60
68867;SHT30;56451;44.804;20.476;2023-09-18T05:29:31;23.11;62.55
68867;SHT30;56451;44.804;20.476;2023-09-18T05:31:58;23.14;62.25
68867;SHT30;56451;44.804;20.476;2023-09-18T05:34:23;23.15;62.14
68867;SHT30;56451;44.804;20.476;2023-09-18T05:36:49;23.18;62.23
68867;SHT30;56451;44.804;20.476;2023-09-18T05:39:15;23.18;62.05
68867;SHT30;56451;44.804;20.476;2023-09-18T05:41:42;23.16;62.18
68867;SHT30;56451;44.804;20.476;2023-09-18T05:44:08;23.16;62.09
68867;SHT30;56451;44.804;20.476;2023-09-18T05:46:35;23.19;62.12
68867;SHT30;56451;44.804;20.476;2023-09-18T05:49:04;23.21;61.85
68867;SHT30;56451;44.804;20.476;2023-09-18T05:51:30;23.16;61.85
68867;SHT30;56451;44.804;20.476;2023-09-18T05:53:58;23.19;61.92
68867;SHT30;56451;44.804;20.476;2023-09-18T05:56:24;23.19;61.86
68867;SHT30;56451;44.804;20.476;2023-09-18T05:58:50;23.23;61.89
68867;SHT30;56451;44.804;20.476;2023-09-18T06:01:17;23.25;61.93
68867;SHT30;56451;44.804;20.476;2023-09-18T06:03:42;23.28;61.86
68867;SHT30;56451;44.804;20.476;2023-09-18T06:06:09;23.29;61.52
68867;SHT30;56451;44.804;20.476;2023-09-18T06:08:35;23.33;61.35
68867;SHT30;56451;44.804;20.476;2023-09-18T06:11:01;23.31;61.30
68867;SHT30;56451;44.804;20.476;2023-09-18T06:13:27;23.31;61.19
68867;SHT30;56451;44.804;20.476;2023-09-18T06:15:53;23.31;61.04
68867;SHT30;56451;44.804;20.476;2023-09-18T06:18:21;23.32;61.14
68867;SHT30;56451;44.804;20.476;2023-09-18T06:20:48;23.32;61.29
68867;SHT30;56451;44.804;20.476;2023-09-18T06:23:13;23.33;61.27
68867;SHT30;56451;44.804;20.476;2023-09-18T06:25:40;23.37;61.19
68867;SHT30;56451;44.804;20.476;2023-09-18T06:28:06;23.38;61.09
68867;SHT30;56451;44.804;20.476;2023-09-18T06:30:32;23.42;61.00
68867;SHT30;56451;44.804;20.476;2023-09-18T06:33:02;23.41;60.93
68867;SHT30;56451;44.804;20.476;2023-09-18T06:35:29;23.39;60.92
68867;SHT30;56451;44.804;20.476;2023-09-18T06:37:55;23.43;60.91
68867;SHT30;56451;44.804;20.476;2023-09-18T06:40:24;23.43;60.97
68867;SHT30;56451;44.804;20.476;2023-09-18T06:42:51;23.48;60.92
68867;SHT30;56451;44.804;20.476;2023-09-18T06:45:17;23.49;60.96
68867;SHT30;56451;44.804;20.476;2023-09-18T06:47:43;23.55;61.03
68867;SHT30;56451;44.804;20.476;2023-09-18T06:50:10;23.53;61.24
68867;SHT30;56451;44.804;20.476;2023-09-18T06:52:37;23.59;61.07
68867;SHT30;56451;44.804;20.476;2023-09-18T06:55:03;23.63;60.77
68867;SHT30;56451;44.804;20.476;2023-09-18T06:57:30;23.66;60.70
68867;SHT30;56451;44.804;20.476;2023-09-18T06:59:56;23.73;60.58
68867;SHT30;56451;44.804;20.476;2023-09-18T07:02:22;23.74;60.39
68867;SHT30;56451;44.804;20.476;2023-09-18T07:04:48;23.80;60.05
68867;SHT30;56451;44.804;20.476;2023-09-18T07:07:15;23.86;59.63
68867;SHT30;56451;44.804;20.476;2023-09-18T07:09:41;23.87;59.69
68867;SHT30;56451;44.804;20.476;2023-09-18T07:12:08;23.89;59.46
68867;SHT30;56451;44.804;20.476;2023-09-18T07:14:37;23.92;59.43
68867;SHT30;56451;44.804;20.476;2023-09-18T07:17:04;23.97;59.32
68867;SHT30;56451;44.804;20.476;2023-09-18T07:19:30;23.97;59.41
68867;SHT30;56451;44.804;20.476;2023-09-18T07:21:56;24.04;59.01
68867;SHT30;56451;44.804;20.476;2023-09-18T07:24:22;24.07;59.05
68867;SHT30;56451;44.804;20.476;2023-09-18T07:26:48;24.13;58.84
68867;SHT30;56451;44.804;20.476;2023-09-18T07:29:15;24.17;58.43
68867;SHT30;56451;44.804;20.476;2023-09-18T07:31:44;24.24;58.56
68867;SHT30;56451;44.804;20.476;2023-09-18T07:34:10;24.28;58.39
68867;SHT30;56451;44.804;20.476;2023-09-18T07:36:36;24.29;58.01
68867;SHT30;56451;44.804;20.476;2023-09-18T07:39:03;24.32;57.83
68867;SHT30;56451;44.804;20.476;2023-09-18T07:41:31;24.35;57.83
68867;SHT30;56451;44.804;20.476;2023-09-18T07:43:56;24.35;57.59
68867;SHT30;56451;44.804;20.476;2023-09-18T07:46:26;24.44;57.71
68867;SHT30;56451;44.804;20.476;2023-09-18T07:48:52;24.45;57.65
68867;SHT30;56451;44.804;20.476;2023-09-18T07:51:18;24.54;57.39
68867;SHT30;56451;44.804;20.476;2023-09-18T07:53:43;24.55;57.30
68867;SHT30;56451;44.804;20.476;2023-09-18T07:56:09;24.58;56.97
68867;SHT30;56451;44.804;20.476;2023-09-18T07:58:35;24.64;56.57
68867;SHT30;56451;44.804;20.476;2023-09-18T08:01:05;24.64;56.74
68867;SHT30;56451;44.804;20.476;2023-09-18T08:03:32;24.65;56.76
68867;SHT30;56451;44.804;20.476;2023-09-18T08:05:57;24.71;56.86
68867;SHT30;56451;44.804;20.476;2023-09-18T08:08:23;24.75;56.44
68867;SHT30;56451;44.804;20.476;2023-09-18T08:10:51;24.78;56.60
68867;SHT30;56451;44.804;20.476;2023-09-18T08:13:17;24.79;56.33
68867;SHT30;56451;44.804;20.476;2023-09-18T08:15:43;24.82;56.64
68867;SHT30;56451;44.804;20.476;2023-09-18T08:18:10;24.87;56.42
68867;SHT30;56451;44.804;20.476;2023-09-18T08:20:42;24.93;56.00
68867;SHT30;56451;44.804;20.476;2023-09-18T08:23:12;24.96;55.48
68867;SHT30;56451;44.804;20.476;2023-09-18T08:25:38;25.05;55.08
68867;SHT30;56451;44.804;20.476;2023-09-18T08:28:05;25.09;54.91
68867;SHT30;56451;44.804;20.476;2023-09-18T08:30:32;25.13;54.47
68867;SHT30;56451;44.804;20.476;2023-09-18T08:32:58;25.13;54.63
68867;SHT30;56451;44.804;20.476;2023-09-18T08:35:24;25.20;54.49
68867;SHT30;56451;44.804;20.476;2023-09-18T08:37:55;25.26;54.42
68867;SHT30;56451;44.804;20.476;2023-09-18T08:40:22;25.30;54.08
68867;SHT30;56451;44.804;20.476;2023-09-18T08:42:51;25.38;53.89
68867;SHT30;56451;44.804;20.476;2023-09-18T08:45:30;25.41;53.57
68867;SHT30;56451;44.804;20.476;2023-09-18T08:47:57;25.43;53.52
68867;SHT30;56451;44.804;20.476;2023-09-18T08:50:25;25.48;53.06
68867;SHT30;56451;44.804;20.476;2023-09-18T08:52:51;25.50;53.11
68867;SHT30;56451;44.804;20.476;2023-09-18T08:55:18;25.54;53.07
68867;SHT30;56451;44.804;20.476;2023-09-18T08:57:44;25.55;52.83
68867;SHT30;56451;44.804;20.476;2023-09-18T09:00:12;25.61;52.65
68867;SHT30;56451;44.804;20.476;2023-09-18T09:02:44;25.61;52.97
68867;SHT30;56451;44.804;20.476;2023-09-18T09:05:10;25.63;53.05
68867;SHT30;56451;44.804;20.476;2023-09-18T09:07:35;25.72;52.79
68867;SHT30;56451;44.804;20.476;2023-09-18T09:10:01;25.75;52.70
68867;SHT30;56451;44.804;20.476;2023-09-18T09:15:15;25.82;52.42
68867;SHT30;56451;44.804;20.476;2023-09-18T09:17:42;25.88;52.26
68867;SHT30;56451;44.804;20.476;2023-09-18T09:20:14;25.91;52.35
68867;SHT30;56451;44.804;20.476;2023-09-18T09:22:41;25.93;52.47
68867;SHT30;56451;44.804;20.476;2023-09-18T09:25:28;25.98;52.50
68867;SHT30;56451;44.804;20.476;2023-09-18T09:27:58;26.03;52.57
68867;SHT30;56451;44.804;20.476;2023-09-18T09:30:26;26.08;52.39
68867;SHT30;56451;44.804;20.476;2023-09-18T09:32:55;26.12;52.39
68867;SHT30;56451;44.804;20.476;2023-09-18T09:35:29;26.16;52.00
68867;SHT30;56451;44.804;20.476;2023-09-18T09:38:01;26.22;51.95
68867;SHT30;56451;44.804;20.476;2023-09-18T09:40:32;26.29;51.42
68867;SHT30;56451;44.804;20.476;2023-09-18T09:42:58;26.35;51.51
68867;SHT30;56451;44.804;20.476;2023-09-18T09:45:28;26.36;51.25
68867;SHT30;56451;44.804;20.476;2023-09-18T09:47:56;26.41;51.34
68867;SHT30;56451;44.804;20.476;2023-09-18T09:50:23;26.41;51.13
68867;SHT30;56451;44.804;20.476;2023-09-18T09:52:52;26.44;51.01
68867;SHT30;56451;44.804;20.476;2023-09-18T09:57:58;26.54;51.35
68867;SHT30;56451;44.804;20.476;2023-09-18T10:00:29;26.59;51.21
68867;SHT30;56451;44.804;20.476;2023-09-18T10:02:59;26.60;51.01
68867;SHT30;56451;44.804;20.476;2023-09-18T10:05:31;26.61;51.11
68867;SHT30;56451;44.804;20.476;2023-09-18T10:08:00;26.67;50.80
68867;SHT30;56451;44.804;20.476;2023-09-18T10:10:33;26.70;50.72
68867;SHT30;56451;44.804;20.476;2023-09-18T10:13:02;26.73;50.64
68867;SHT30;56451;44.804;20.476;2023-09-18T10:15:33;26.74;50.82
68867;SHT30;56451;44.804;20.476;2023-09-18T10:18:00;26.81;50.72
68867;SHT30;56451;44.804;20.476;2023-09-18T10:20:29;26.84;50.67
68867;SHT30;56451;44.804;20.476;2023-09-18T10:22:56;26.88;50.47
68867;SHT30;56451;44.804;20.476;2023-09-18T10:25:28;26.90;50.34
68867;SHT30;56451;44.804;20.476;2023-09-18T10:27:57;26.92;50.17
68867;SHT30;56451;44.804;20.476;2023-09-18T10:30:24;26.95;49.96
68867;SHT30;56451;44.804;20.476;2023-09-18T10:32:51;26.99;49.87
68867;SHT30;56451;44.804;20.476;2023-09-18T10:35:17;26.98;49.88
68867;SHT30;56451;44.804;20.476;2023-09-18T10:37:46;27.05;49.84
68867;SHT30;56451;44.804;20.476;2023-09-18T10:40:13;27.14;49.54
68867;SHT30;56451;44.804;20.476;2023-09-18T10:42:41;27.16;49.36
68867;SHT30;56451;44.804;20.476;2023-09-18T10:45:09;27.19;49.33
68867;SHT30;56451;44.804;20.476;2023-09-18T10:47:40;27.25;49.22
68867;SHT30;56451;44.804;20.476;2023-09-18T10:50:08;27.31;49.20
68867;SHT30;56451;44.804;20.476;2023-09-18T10:52:43;27.32;48.84
68867;SHT30;56451;44.804;20.476;2023-09-18T10:55:13;27.35;48.75
68867;SHT30;56451;44.804;20.476;2023-09-18T10:57:50;27.34;48.57
68867;SHT30;56451;44.804;20.476;2023-09-18T11:00:17;27.32;48.27
68867;SHT30;56451;44.804;20.476;2023-09-18T11:02:56;27.32;48.24
68867;SHT30;56451;44.804;20.476;2023-09-18T11:05:34;27.35;48.24
68867;SHT30;56451;44.804;20.476;2023-09-18T11:08:31;27.42;48.15
68867;SHT30;56451;44.804;20.476;2023-09-18T11:11:03;27.46;48.18
68867;SHT30;56451;44.804;20.476;2023-09-18T11:16:14;27.50;47.96
68867;SHT30;56451;44.804;20.476;2023-09-18T11:18:40;27.49;47.95
68867;SHT30;56451;44.804;20.476;2023-09-18T11:21:11;27.55;48.09
68867;SHT30;56451;44.804;20.476;2023-09-18T11:23:39;27.60;48.16
68867;SHT30;56451;44.804;20.476;2023-09-18T11:26:11;27.67;47.63
68867;SHT30;56451;44.804;20.476;2023-09-18T11:28:37;27.71;47.39
68867;SHT30;56451;44.804;20.476;2023-09-18T11:31:04;27.71;47.20
68867;SHT30;56451;44.804;20.476;2023-09-18T11:36:05;27.79;47.12
68867;SHT30;56451;44.804;20.476;2023-09-18T11:38:51;27.82;46.92
68867;SHT30;56451;44.804;20.476;2023-09-18T11:41:26;27.84;46.78
68867;SHT30;56451;44.804;20.476;2023-09-18T11:44:05;27.90;46.81
68867;SHT30;56451;44.804;20.476;2023-09-18T11:46:46;27.92;46.83
68867;SHT30;56451;44.804;20.476;2023-09-18T11:49:24;27.98;47.00
68867;SHT30;56451;44.804;20.476;2023-09-18T11:51:54;28.03;47.11
68867;SHT30;56451;44.804;20.476;2023-09-18T11:54:20;28.08;46.59
68867;SHT30;56451;44.804;20.476;2023-09-18T11:56:49;28.11;46.92
68867;SHT30;56451;44.804;20.476;2023-09-18T11:59:15;28.14;46.36
68867;SHT30;56451;44.804;20.476;2023-09-18T12:01:42;28.18;46.59
68867;SHT30;56451;44.804;20.476;2023-09-18T12:04:12;28.27;46.26
68867;SHT30;56451;44.804;20.476;2023-09-18T12:06:40;28.29;46.25
68867;SHT30;56451;44.804;20.476;2023-09-18T12:09:07;28.29;45.77
68867;SHT30;56451;44.804;20.476;2023-09-18T12:11:36;28.34;45.97
68867;SHT30;56451;44.804;20.476;2023-09-18T12:14:07;28.37;46.12
68867;SHT30;56451;44.804;20.476;2023-09-18T12:16:39;28.45;45.55
68867;SHT30;56451;44.804;20.476;2023-09-18T12:19:05;28.48;45.03
68867;SHT30;56451;44.804;20.476;2023-09-18T12:21:40;28.48;45.09
68867;SHT30;56451;44.804;20.476;2023-09-18T12:24:06;28.51;44.70
68867;SHT30;56451;44.804;20.476;2023-09-18T12:26:32;28.56;44.85
68867;SHT30;56451;44.804;20.476;2023-09-18T12:28:59;28.56;44.43
68867;SHT30;56451;44.804;20.476;2023-09-18T12:31:25;28.61;44.46
68867;SHT30;56451;44.804;20.476;2023-09-18T12:33:51;28.61;44.42
68867;SHT30;56451;44.804;20.476;2023-09-18T12:36:21;28.66;44.40
68867;SHT30;56451;44.804;20.476;2023-09-18T12:38:57;28.73;44.46
68867;SHT30;56451;44.804;20.476;2023-09-18T12:41:25;28.79;43.81
68867;SHT30;56451;44.804;20.476;2023-09-18T12:43:51;28.80;44.04
68867;SHT30;56451;44.804;20.476;2023-09-18T12:46:18;28.78;43.65
68867;SHT30;56451;44.804;20.476;2023-09-18T12:48:45;28.78;44.30
68867;SHT30;56451;44.804;20.476;2023-09-18T12:51:12;28.80;43.96
68867;SHT30;56451;44.804;20.476;2023-09-18T12:53:40;28.83;43.40
68867;SHT30;56451;44.804;20.476;2023-09-18T12:56:13;28.86;43.24
68867;SHT30;56451;44.804;20.476;2023-09-18T12:58:40;28.86;43.40
68867;SHT30;56451;44.804;20.476;2023-09-18T13:01:07;28.89;43.34
68867;SHT30;56451;44.804;20.476;2023-09-18T13:03:43;28.93;43.28
68867;SHT30;56451;44.804;20.476;2023-09-18T13:06:16;28.96;42.86
68867;SHT30;56451;44.804;20.476;2023-09-18T13:08:46;29.00;42.87
68867;SHT30;56451;44.804;20.476;2023-09-18T13:11:13;29.07;42.61
68867;SHT30;56451;44.804;20.476;2023-09-18T13:13:42;29.10;42.48
68867;SHT30;56451;44.804;20.476;2023-09-18T13:16:11;29.14;42.20
68867;SHT30;56451;44.804;20.476;2023-09-18T13:18:38;29.19;42.61
68867;SHT30;56451;44.804;20.476;2023-09-18T13:21:11;29.21;41.72
68867;SHT30;56451;44.804;20.476;2023-09-18T13:23:37;29.27;41.93
68867;SHT30;56451;44.804;20.476;2023-09-18T13:26:04;29.27;41.82
68867;SHT30;56451;44.804;20.476;2023-09-18T13:28:31;29.27;41.09
68867;SHT30;56451;44.804;20.476;2023-09-18T13:30:59;29.27;41.35
68867;SHT30;56451;44.804;20.476;2023-09-18T13:33:26;29.26;42.71
68867;SHT30;56451;44.804;20.476;2023-09-18T13:35:53;29.23;41.52
68867;SHT30;56451;44.804;20.476;2023-09-18T13:38:19;29.23;41.90
68867;SHT30;56451;44.804;20.476;2023-09-18T13:40:46;29.24;42.10
68867;SHT30;56451;44.804;20.476;2023-09-18T13:43:13;29.30;41.85
68867;SHT30;56451;44.804;20.476;2023-09-18T13:45:41;29.35;41.22
68867;SHT30;56451;44.804;20.476;2023-09-18T13:48:08;29.44;41.54
68867;SHT30;56451;44.804;20.476;2023-09-18T13:50:35;29.46;41.16
68867;SHT30;56451;44.804;20.476;2023-09-18T13:53:02;29.48;40.98
68867;SHT30;56451;44.804;20.476;2023-09-18T13:55:30;29.50;40.94
68867;SHT30;56451;44.804;20.476;2023-09-18T13:57:56;29.58;40.42
68867;SHT30;56451;44.804;20.476;2023-09-18T14:00:22;29.59;40.29
68867;SHT30;56451;44.804;20.476;2023-09-18T14:02:48;29.64;41.04
68867;SHT30;56451;44.804;20.476;2023-09-18T14:05:14;29.61;40.99
68867;SHT30;56451;44.804;20.476;2023-09-18T14:07:40;29.67;40.85
68867;SHT30;56451;44.804;20.476;2023-09-18T14:10:07;29.62;40.58
68867;SHT30;56451;44.804;20.476;2023-09-18T14:12:39;29.68;40.31
68867;SHT30;56451;44.804;20.476;2023-09-18T14:15:06;29.72;39.81
68867;SHT30;56451;44.804;20.476;2023-09-18T14:17:32;29.74;39.99
68867;SHT30;56451;44.804;20.476;2023-09-18T14:19:58;29.74;40.66
68867;SHT30;56451;44.804;20.476;2023-09-18T14:22:25;29.74;40.46
68867;SHT30;56451;44.804;20.476;2023-09-18T14:24:50;29.84;40.91
68867;SHT30;56451;44.804;20.476;2023-09-18T14:27:16;29.85;41.70
68867;SHT30;56451;44.804;20.476;2023-09-18T14:29:42;29.85;41.97
68867;SHT30;56451;44.804;20.476;2023-09-18T14:32:09;29.86;42.68
68867;SHT30;56451;44.804;20.476;2023-09-18T14:34:35;29.86;42.77
68867;SHT30;56451;44.804;20.476;2023-09-18T14:37:02;29.88;42.99
68867;SHT30;56451;44.804;20.476;2023-09-18T14:39:31;29.89;43.00
68867;SHT30;56451;44.804;20.476;2023-09-18T14:41:58;29.88;43.07
68867;SHT30;56451;44.804;20.476;2023-09-18T14:44:25;29.92;43.06
68867;SHT30;56451;44.804;20.476;2023-09-18T14:46:53;29.92;42.93
68867;SHT30;56451;44.804;20.476;2023-09-18T14:49:20;29.92;43.08
68867;SHT30;56451;44.804;20.476;2023-09-18T14:51:46;29.89;43.33
68867;SHT30;56451;44.804;20.476;2023-09-18T14:54:13;29.90;43.33
68867;SHT30;56451;44.804;20.476;2023-09-18T14:56:40;29.93;43.20
68867;SHT30;56451;44.804;20.476;2023-09-18T14:59:06;29.92;43.27
68867;SHT30;56451;44.804;20.476;2023-09-18T15:01:33;29.93;42.86
68867;SHT30;56451;44.804;20.476;2023-09-18T15:03:59;29.90;42.86
68867;SHT30;56451;44.804;20.476;2023-09-18T15:06:25;29.86;43.07
68867;SHT30;56451;44.804;20.476;2023-09-18T15:08:54;29.82;43.03
68867;SHT30;56451;44.804;20.476;2023-09-18T15:11:20;29.79;43.09
68867;SHT30;56451;44.804;20.476;2023-09-18T15:13:46;29.71;43.05
68867;SHT30;56451;44.804;20.476;2023-09-18T15:16:12;29.64;43.08
68867;SHT30;56451;44.804;20.476;2023-09-18T15:18:38;29.53;43.33
68867;SHT30;56451;44.804;20.476;2023-09-18T15:21:09;29.48;43.27
68867;SHT30;56451;44.804;20.476;2023-09-18T15:23:36;29.40;43.71
68867;SHT30;56451;44.804;20.476;2023-09-18T15:26:02;29.33;43.49
68867;SHT30;56451;44.804;20.476;2023-09-18T15:28:28;29.30;43.42
68867;SHT30;56451;44.804;20.476;2023-09-18T15:30:55;29.23;43.95